Time;durP1;ratioP1;P1;durP2;ratioP2;P2;SDS_P1;SDS_P2;PMS_P1;PMS_P2;Temp;Humidity;BMP_temperature;BMP_pressure;BME280_temperature;BME280_humidity;BME280_pressure;Samples;Min_cycle;Max_cycle;Signal;HPM_P1;HPM_P2
2021/08/08 00:01:59;;;;;;;;;3.00;1.00;;;;;19.12;60.81;100779.97;4943437;28;45420;-84
2021/08/08 00:04:25;;;;;;;;;3.00;1.00;;;;;19.09;61.37;100785.50;4928041;28;46337;-85
2021/08/08 00:06:50;;;;;;;;;2.00;1.25;;;;;19.00;61.07;100779.00;4943181;28;46487;-83
2021/08/08 00:09:15;;;;;;;;;1.50;1.00;;;;;18.98;61.04;100779.13;4938730;28;45277;-83
2021/08/08 00:11:42;;;;;;;;;3.00;3.00;;;;;18.98;61.55;100783.59;4923942;28;45208;-84
2021/08/08 00:14:08;;;;;;;;;3.75;2.00;;;;;19.00;61.20;100787.84;4936364;28;45460;-84
2021/08/08 00:16:34;;;;;;;;;1.50;1.50;;;;;19.03;60.77;100797.44;4942971;28;45425;-84
2021/08/08 00:19:00;;;;;;;;;1.50;0.75;;;;;19.00;61.35;100787.00;4942635;28;45247;-81
2021/08/08 00:21:25;;;;;;;;;2.00;2.00;;;;;18.94;61.24;100790.91;4934383;28;45754;-82
2021/08/08 00:23:50;;;;;;;;;2.50;2.50;;;;;18.86;61.68;100778.16;4937948;28;45385;-82
2021/08/08 00:26:16;;;;;;;;;4.00;1.25;;;;;18.88;61.27;100784.22;4942640;28;45407;-83
2021/08/08 00:28:41;;;;;;;;;2.50;1.75;;;;;18.93;61.28;100794.56;4940744;28;45322;-83
2021/08/08 00:31:07;;;;;;;;;4.00;3.00;;;;;18.98;61.73;100794.22;4940240;28;45377;-83
2021/08/08 00:33:32;;;;;;;;;2.25;2.25;;;;;19.00;61.32;100787.00;4942245;28;45507;-83
2021/08/08 00:35:57;;;;;;;;;2.50;2.50;;;;;19.04;61.34;100793.81;4928871;28;45274;-84
2021/08/08 00:38:23;;;;;;;;;2.25;1.75;;;;;19.09;61.20;100794.34;4949491;28;45288;-85
2021/08/08 00:40:48;;;;;;;;;1.00;1.00;;;;;19.11;61.07;100781.75;4951917;28;45147;-85
2021/08/08 00:43:14;;;;;;;;;3.25;2.00;;;;;19.17;61.19;100793.84;4961914;28;45238;-85
2021/08/08 00:45:39;;;;;;;;;2.50;1.75;;;;;19.20;60.89;100784.78;4946416;28;46324;-86
2021/08/08 00:48:05;;;;;;;;;4.00;1.75;;;;;19.22;61.18;100796.19;4950126;28;45251;-86
2021/08/08 00:50:30;;;;;;;;;1.50;1.50;;;;;19.19;61.39;100793.72;4956843;28;45299;-84
2021/08/08 00:52:55;;;;;;;;;1.25;1.25;;;;;19.18;60.72;100792.03;4960117;28;45242;-84
2021/08/08 00:55:21;;;;;;;;;1.00;1.00;;;;;19.21;60.96;100789.19;4955889;28;45273;-85
2021/08/08 00:57:46;;;;;;;;;2.00;1.75;;;;;19.24;61.07;100794.28;4942623;28;45234;-80
2021/08/08 01:00:12;;;;;;;;;3.00;3.00;;;;;19.25;60.66;100796.00;4961439;28;45215;-80
2021/08/08 01:02:46;;;;;;;;;3.50;2.50;;;;;19.24;60.99;100794.28;4961035;28;45435;-80
2021/08/08 01:05:16;;;;;;;;;2.50;2.50;;;;;19.20;61.12;100803.44;4961443;28;45530;-80
2021/08/08 01:07:48;;;;;;;;;3.75;1.25;;;;;19.14;61.01;100798.53;4945398;28;45315;-80
2021/08/08 01:10:15;;;;;;;;;2.75;2.00;;;;;19.11;61.10;100796.91;4954580;28;45312;-86
2021/08/08 01:12:40;;;;;;;;;2.75;2.00;;;;;19.08;60.86;100795.31;4942115;28;45413;-83
2021/08/08 01:15:08;;;;;;;;;2.75;2.00;;;;;19.03;60.97;100797.44;4938313;28;47194;-82
2021/08/08 01:17:36;;;;;;;;;3.00;3.00;;;;;18.96;61.29;100805.00;4948958;28;45488;-82
2021/08/08 01:20:10;;;;;;;;;2.25;2.25;;;;;18.90;61.49;100802.75;4961345;28;45402;-82
2021/08/08 01:22:41;;;;;;;;;2.75;2.50;;;;;18.83;61.24;100810.28;4945154;28;45386;-82
2021/08/08 01:25:07;;;;;;;;;3.25;3.00;;;;;18.67;61.64;100795.34;4942247;28;46575;-81
2021/08/08 01:27:33;;;;;;;;;2.50;2.50;;;;;18.54;61.91;100802.44;4935213;28;45924;-84
2021/08/08 01:29:59;;;;;;;;;2.00;1.50;;;;;18.44;61.87;100804.84;4961317;28;45230;-83
2021/08/08 01:32:25;;;;;;;;;2.00;2.00;;;;;18.36;62.65;100810.69;4959727;28;46021;-82
2021/08/08 01:34:51;;;;;;;;;2.00;2.00;;;;;18.27;62.73;100808.63;4943317;28;47189;-80
2021/08/08 01:37:19;;;;;;;;;2.25;2.25;;;;;18.26;63.20;100805.09;4945815;28;45486;-80
2021/08/08 01:39:50;;;;;;;;;3.00;2.00;;;;;18.26;62.94;100812.22;4953155;28;45331;-79
2021/08/08 01:42:16;;;;;;;;;3.00;3.00;;;;;18.31;63.50;100808.31;4960852;28;45271;-83
2021/08/08 01:44:48;;;;;;;;;3.00;3.00;;;;;18.31;63.14;100807.47;4961484;28;46164;-93
2021/08/08 01:47:18;;;;;;;;;1.00;1.00;;;;;18.31;63.38;100807.47;4960890;28;44770;-95
2021/08/08 01:49:44;;;;;;;;;2.50;2.00;;;;;18.32;63.17;100803.84;4944574;28;45413;-95
2021/08/08 01:52:11;;;;;;;;;5.50;3.00;;;;;18.36;63.36;100812.47;4959389;28;46299;-95
2021/08/08 01:54:37;;;;;;;;;1.00;1.00;;;;;18.34;63.01;100807.28;4944621;28;47221;-94
2021/08/08 01:57:04;;;;;;;;;3.00;1.75;;;;;18.34;63.37;100799.28;5104136;23;45246;-96
2021/08/08 01:59:29;;;;;;;;;1.50;1.50;;;;;18.42;63.18;100794.28;4954533;28;44728;-89
2021/08/08 02:01:54;;;;;;;;;3.50;1.75;;;;;18.52;62.70;100796.38;4950775;28;45458;-89
2021/08/08 02:04:25;;;;;;;;;3.50;2.00;;;;;18.63;62.67;100806.28;4960173;28;46403;-84
2021/08/08 02:06:51;;;;;;;;;2.75;2.75;;;;;18.71;62.53;100813.78;4935326;28;45482;-89
2021/08/08 02:09:16;;;;;;;;;3.00;2.00;;;;;18.76;62.69;100814.31;4956066;28;45247;-84
2021/08/08 02:11:42;;;;;;;;;3.00;2.00;;;;;18.83;62.62;100810.28;4942540;28;45288;-84
2021/08/08 02:14:07;;;;;;;;;4.00;4.00;;;;;18.89;62.32;100811.66;4960508;28;45312;-84
2021/08/08 02:16:33;;;;;;;;;2.00;2.00;;;;;18.91;62.21;100812.44;4960496;28;45321;-84
2021/08/08 02:19:00;;;;;;;;;3.75;1.50;;;;;18.97;62.36;100817.34;4954220;28;45320;-89
2021/08/08 02:21:26;;;;;;;;;2.75;2.00;;;;;18.94;61.60;100811.38;4960144;28;45536;-89
2021/08/08 02:23:51;;;;;;;;;3.50;2.50;;;;;18.98;61.80;100812.88;4960041;28;45494;-90
2021/08/08 02:26:17;;;;;;;;;3.00;3.00;;;;;19.02;61.92;100822.34;4951039;28;45340;-89
2021/08/08 02:28:43;;;;;;;;;3.00;1.50;;;;;19.07;61.64;100828.22;4967437;28;45250;-95
2021/08/08 02:31:08;;;;;;;;;2.75;2.75;;;;;19.08;61.80;100823.75;4944090;28;46247;-94
2021/08/08 02:33:34;;;;;;;;;2.75;2.25;;;;;19.14;61.61;100830.50;4931261;28;47175;-94
2021/08/08 02:36:00;;;;;;;;;4.00;3.25;;;;;19.14;61.19;100825.16;4949278;28;45989;-94
2021/08/08 02:38:26;;;;;;;;;2.75;2.75;;;;;19.21;61.08;100832.63;4951935;28;45264;-94
2021/08/08 02:40:51;;;;;;;;;2.25;2.25;;;;;19.24;60.96;100828.91;4946011;28;45865;-95
2021/08/08 02:43:17;;;;;;;;;5.75;2.75;;;;;19.23;61.01;100843.22;4952030;28;47047;-88
2021/08/08 02:45:42;;;;;;;;;4.25;3.25;;;;;19.20;60.90;100838.94;4959922;28;45303;-82
2021/08/08 02:48:07;;;;;;;;;2.25;2.25;;;;;19.22;60.69;100833.50;4960060;28;45220;-82
2021/08/08 02:50:33;;;;;;;;;5.25;2.75;;;;;19.22;60.62;100834.34;4942761;28;45721;-82
2021/08/08 02:52:59;;;;;;;;;3.25;2.50;;;;;19.26;60.53;100836.81;4959117;28;46037;-81
2021/08/08 02:55:24;;;;;;;;;5.00;3.00;;;;;19.27;60.90;100839.38;4959997;28;45344;-81
2021/08/08 02:57:50;;;;;;;;;6.00;2.00;;;;;19.26;60.36;100834.97;4957344;28;45396;-81
2021/08/08 03:00:15;;;;;;;;;1.75;1.75;;;;;19.26;60.46;100840.31;4940492;28;45647;-81
2021/08/08 03:02:40;;;;;;;;;6.00;2.50;;;;;19.19;60.44;100841.69;4940851;28;45445;-80
2021/08/08 03:05:06;;;;;;;;;2.50;1.00;;;;;19.18;60.65;100848.00;4957350;28;45415;-86
2021/08/08 03:07:32;;;;;;;;;2.00;2.00;;;;;19.08;60.68;100845.06;4960364;28;45465;-88
2021/08/08 03:09:57;;;;;;;;;1.25;1.25;;;;;19.05;60.99;100842.59;4959845;28;45540;-88
2021/08/08 03:12:23;;;;;;;;;3.50;3.00;;;;;18.99;60.69;100835.88;4959838;28;45358;-91
2021/08/08 03:14:48;;;;;;;;;4.50;2.75;;;;;18.98;60.83;100837.72;4960099;28;45326;-90
2021/08/08 03:17:13;;;;;;;;;4.50;3.50;;;;;18.94;61.12;100848.66;4938629;28;45381;-93
2021/08/08 03:19:39;;;;;;;;;1.75;1.75;;;;;18.81;60.89;100844.16;4944072;28;47015;-94
2021/08/08 03:22:04;;;;;;;;;3.25;3.00;;;;;18.79;61.15;100848.75;4941574;28;47471;-95
2021/08/08 03:24:30;;;;;;;;;2.00;2.00;;;;;18.77;61.37;100855.94;4945433;28;45479;-83
2021/08/08 03:26:55;;;;;;;;;4.00;3.25;;;;;18.66;61.58;100852.22;4940603;28;45430;-85
2021/08/08 03:29:21;;;;;;;;;3.00;3.00;;;;;18.59;61.73;100853.56;4943412;28;45457;-86
2021/08/08 03:31:46;;;;;;;;;3.75;3.75;;;;;18.56;61.46;100853.75;4943381;28;46267;-86
2021/08/08 03:34:11;;;;;;;;;1.25;1.25;;;;;18.55;62.18;100854.72;4942825;28;45293;-87
2021/08/08 03:36:37;;;;;;;;;5.50;5.00;;;;;18.49;61.93;100850.66;4962772;28;45510;-86
2021/08/08 03:39:03;;;;;;;;;2.75;2.75;;;;;18.45;62.14;100862.44;4945418;28;46064;-86
2021/08/08 03:41:28;;;;;;;;;4.50;3.50;;;;;18.38;62.10;100859.31;4945235;28;47589;-85
2021/08/08 03:43:54;;;;;;;;;7.75;3.00;;;;;18.20;62.20;100867.53;4954881;28;45506;-85
2021/08/08 03:46:19;;;;;;;;;3.50;3.50;;;;;18.06;62.81;100856.88;4952505;28;45356;-85
2021/08/08 03:48:44;;;;;;;;;5.00;4.25;;;;;18.08;62.60;100865.59;4949448;28;45599;-85
2021/08/08 03:51:11;;;;;;;;;4.50;3.00;;;;;18.08;62.67;100857.63;4943361;28;45343;-85
2021/08/08 03:53:36;;;;;;;;;6.75;4.00;;;;;18.14;63.21;100865.22;4955752;28;45439;-86
2021/08/08 03:56:01;;;;;;;;;4.00;2.50;;;;;18.10;62.84;100864.56;4953598;28;45363;-86
2021/08/08 03:58:30;;;;;;;;;3.25;3.00;;;;;18.16;63.00;100862.47;4956626;28;45380;-86
2021/08/08 04:01:04;;;;;;;;;4.00;4.00;;;;;18.19;63.35;100852.53;4962773;28;45347;-86
2021/08/08 04:03:31;;;;;;;;;4.25;4.25;;;;;18.21;62.89;100855.94;4962206;28;45521;-86
2021/08/08 04:05:56;;;;;;;;;4.25;3.00;;;;;18.21;62.74;100860.41;4976457;28;45440;-91
2021/08/08 04:08:22;;;;;;;;;3.75;3.00;;;;;18.23;62.58;100858.50;4946082;28;45843;-85
2021/08/08 04:10:47;;;;;;;;;5.00;3.25;;;;;18.18;62.57;100861.41;4962326;28;45595;-84
2021/08/08 04:13:13;;;;;;;;;4.00;3.75;;;;;18.17;62.67;100865.06;4962400;28;45230;-84
2021/08/08 04:15:38;;;;;;;;;4.25;4.25;;;;;18.18;62.43;100863.22;4941367;28;45265;-84
2021/08/08 04:18:04;;;;;;;;;7.25;4.25;;;;;18.18;62.64;100866.75;4950366;28;45171;-86
2021/08/08 04:20:29;;;;;;;;;3.75;3.75;;;;;18.13;62.58;100866.19;4942487;28;45451;-86
2021/08/08 04:22:54;;;;;;;;;5.75;2.25;;;;;18.03;62.71;100881.00;4931521;28;45995;-96
2021/08/08 04:25:20;;;;;;;;;5.00;4.00;;;;;17.92;63.08;100897.63;4926533;28;45334;-93
2021/08/08 04:27:45;;;;;;;;;5.50;4.00;;;;;17.85;62.80;100886.53;4924609;28;46147;-83
2021/08/08 04:30:11;;;;;;;;;2.25;2.25;;;;;17.83;62.58;100905.22;4954010;28;46444;-80
2021/08/08 04:32:36;;;;;;;;;6.25;3.00;;;;;17.73;62.92;100898.78;4942745;28;45365;-80
2021/08/08 04:35:02;;;;;;;;;4.00;4.00;;;;;17.68;63.37;100903.50;4938440;28;45430;-81
2021/08/08 04:37:28;;;;;;;;;6.00;3.25;;;;;17.62;63.71;100905.59;4952662;28;45499;-82
2021/08/08 04:39:53;;;;;;;;;7.25;5.25;;;;;17.65;63.60;100904.56;4961999;28;46276;-90
2021/08/08 04:42:18;;;;;;;;;7.00;4.00;;;;;17.63;63.27;100901.97;4961884;28;45392;-90
2021/08/08 04:44:44;;;;;;;;;4.75;3.00;;;;;17.65;63.30;100893.94;4960884;28;45465;-89
2021/08/08 04:47:09;;;;;;;;;4.25;4.00;;;;;17.67;63.61;100905.31;4961840;28;45501;-80
2021/08/08 04:49:34;;;;;;;;;6.50;3.00;;;;;17.74;63.87;100905.78;4956818;28;45314;-79
2021/08/08 04:52:02;;;;;;;;;2.50;2.50;;;;;17.80;63.08;100901.91;4961441;28;45285;-79
2021/08/08 04:54:28;;;;;;;;;4.00;3.50;;;;;17.79;63.13;100902.84;4960329;28;45219;-79
2021/08/08 04:56:53;;;;;;;;;4.00;3.00;;;;;17.88;63.86;100907.59;4944051;28;46399;-79
2021/08/08 04:59:19;;;;;;;;;2.75;2.25;;;;;17.95;62.98;100903.59;4960029;28;47071;-78
2021/08/08 05:01:44;;;;;;;;;4.00;4.00;;;;;17.95;63.42;100903.59;4961056;28;45468;-83
2021/08/08 05:04:09;;;;;;;;;5.25;5.25;;;;;17.93;63.22;100894.88;4943662;28;45364;-83
2021/08/08 05:06:35;;;;;;;;;6.00;3.25;;;;;17.95;62.93;100900.94;4961311;28;45243;-87
2021/08/08 05:09:00;;;;;;;;;3.25;3.25;;;;;18.04;62.66;100907.50;4938136;28;47171;-80
2021/08/08 05:11:25;;;;;;;;;5.00;3.25;;;;;18.08;62.79;100914.34;4945761;28;45333;-76
2021/08/08 05:13:51;;;;;;;;;5.00;4.00;;;;;18.10;62.29;100909.78;4961567;28;45304;-76
2021/08/08 05:16:16;;;;;;;;;4.50;4.50;;;;;18.06;62.41;100908.25;4960041;28;46323;-76
2021/08/08 05:18:41;;;;;;;;;5.00;3.50;;;;;18.05;62.32;100905.72;4949874;28;45596;-76
2021/08/08 05:21:07;;;;;;;;;6.75;4.50;;;;;18.05;62.26;100903.88;4945302;28;45451;-76
2021/08/08 05:23:33;;;;;;;;;7.50;4.00;;;;;18.09;62.68;100899.25;4945409;28;45485;-76
2021/08/08 05:25:59;;;;;;;;;3.75;3.75;;;;;18.08;61.67;100900.19;4960765;28;45679;-81
2021/08/08 05:28:26;;;;;;;;;5.00;3.75;;;;;18.08;62.10;100901.03;4961078;28;46215;-82
2021/08/08 05:30:51;;;;;;;;;5.75;4.00;;;;;18.06;61.84;100896.75;4943745;28;46024;-83
2021/08/08 05:33:17;;;;;;;;;4.00;3.00;;;;;18.04;62.26;100896.88;4943272;28;45315;-79
2021/08/08 05:35:42;;;;;;;;;4.00;4.00;;;;;18.11;61.96;100910.63;4959070;28;45287;-81
2021/08/08 05:38:08;;;;;;;;;2.50;2.50;;;;;18.15;62.22;100906.81;4960680;28;46167;-81
2021/08/08 05:40:33;;;;;;;;;5.75;3.00;;;;;18.24;61.31;100904.56;4960704;28;45239;-79
2021/08/08 05:42:59;;;;;;;;;4.25;4.00;;;;;18.24;61.75;100913.41;4960330;28;45258;-82
2021/08/08 05:45:24;;;;;;;;;4.00;4.00;;;;;18.20;61.20;100912.75;4956002;28;45350;-80
2021/08/08 05:47:49;;;;;;;;;2.75;2.75;;;;;18.13;62.01;100921.16;4959352;28;45569;-80
2021/08/08 05:50:15;;;;;;;;;4.50;4.00;;;;;18.13;62.22;100914.06;4960085;28;45364;-80
2021/08/08 05:52:45;;;;;;;;;3.75;3.50;;;;;18.14;62.29;100923.75;4939105;28;45497;-80
2021/08/08 05:55:10;;;;;;;;;4.00;4.00;;;;;18.15;61.92;100913.97;4954608;28;45581;-80
2021/08/08 05:57:36;;;;;;;;;4.75;3.00;;;;;18.13;62.25;100922.03;4943143;28;48071;-80
2021/08/08 06:00:01;;;;;;;;;5.25;4.25;;;;;18.17;62.43;100928.88;4943239;28;45179;-84
2021/08/08 06:02:26;;;;;;;;;7.00;4.00;;;;;18.24;62.37;100928.53;4960594;28;45220;-84
2021/08/08 06:04:52;;;;;;;;;3.00;3.00;;;;;18.30;62.13;100931.66;4960743;28;45611;-85
2021/08/08 06:07:17;;;;;;;;;5.50;2.00;;;;;18.33;61.31;100935.91;4960714;28;45356;-85
2021/08/08 06:09:42;;;;;;;;;4.75;4.00;;;;;18.43;62.01;100944.16;4943383;28;45819;-82
2021/08/08 06:12:08;;;;;;;;;2.50;2.25;;;;;18.47;61.27;100945.69;4960703;28;45287;-82
2021/08/08 06:14:34;;;;;;;;;3.00;3.00;;;;;18.49;61.73;100946.47;4951752;28;45537;-82
2021/08/08 06:17:00;;;;;;;;;3.50;3.00;;;;;18.47;61.29;100945.69;4956366;28;45421;-81
2021/08/08 06:19:25;;;;;;;;;4.00;4.00;;;;;18.42;61.48;100940.66;4942291;28;46825;-82
2021/08/08 06:21:51;;;;;;;;;5.25;2.00;;;;;18.47;61.40;100958.97;4958142;28;45468;-82
2021/08/08 06:24:16;;;;;;;;;2.75;2.75;;;;;18.53;61.53;100965.72;4963736;28;46108;-84
2021/08/08 06:26:41;;;;;;;;;3.00;3.00;;;;;18.53;61.02;100947.09;4962230;28;45478;-84
2021/08/08 06:29:07;;;;;;;;;3.75;3.50;;;;;18.56;61.35;100954.91;4959518;28;45473;-84
2021/08/08 06:31:32;;;;;;;;;2.50;2.50;;;;;18.62;61.19;100954.50;4971010;28;45470;-83
2021/08/08 06:33:59;;;;;;;;;4.00;4.00;;;;;18.69;60.71;100949.66;4977924;28;45393;-83
2021/08/08 06:36:24;;;;;;;;;7.25;4.75;;;;;18.72;60.05;100962.75;4959558;28;45389;-83
2021/08/08 06:38:51;;;;;;;;;3.25;3.00;;;;;18.65;60.48;100967.63;4955389;28;45296;-81
2021/08/08 06:41:17;;;;;;;;;3.50;2.00;;;;;18.68;60.65;100966.56;4959739;28;45248;-80
2021/08/08 06:43:42;;;;;;;;;3.00;2.25;;;;;18.71;60.20;100966.38;4942327;28;45269;-80
2021/08/08 06:46:07;;;;;;;;;5.50;3.50;;;;;18.73;60.50;100977.78;4959898;28;45441;-82
2021/08/08 06:48:34;;;;;;;;;5.25;3.25;;;;;18.71;60.62;100963.72;4960577;28;45346;-82
2021/08/08 06:51:01;;;;;;;;;5.25;4.00;;;;;18.75;60.70;100964.34;4961143;28;45378;-82
2021/08/08 06:53:26;;;;;;;;;5.25;4.00;;;;;18.76;60.07;100961.63;4958507;28;45440;-82
2021/08/08 06:55:51;;;;;;;;;4.25;3.25;;;;;18.70;60.05;100969.13;4956696;28;46990;-83
2021/08/08 06:58:17;;;;;;;;;5.25;4.00;;;;;18.58;59.77;100968.97;4968395;28;45831;-83
2021/08/08 07:00:42;;;;;;;;;5.00;4.00;;;;;18.55;60.59;100985.13;4961732;28;45298;-83
2021/08/08 07:03:08;;;;;;;;;4.00;3.75;;;;;18.58;61.03;100989.41;4942540;28;46146;-83
2021/08/08 07:05:33;;;;;;;;;3.75;2.75;;;;;18.62;60.47;100988.28;4945689;28;48235;-83
2021/08/08 07:07:58;;;;;;;;;3.25;2.50;;;;;18.66;61.12;100985.31;4961620;28;45323;-83
2021/08/08 07:10:23;;;;;;;;;3.75;3.25;;;;;18.71;60.45;100981.50;4974814;28;45293;-82
2021/08/08 07:12:49;;;;;;;;;3.25;3.25;;;;;18.72;60.24;100981.38;4976154;28;45210;-80
2021/08/08 07:15:14;;;;;;;;;3.50;3.50;;;;;18.78;60.16;100982.81;4964999;28;45669;-77
2021/08/08 07:17:39;;;;;;;;;6.00;3.00;;;;;18.84;60.48;100978.91;4960247;28;45274;-78
2021/08/08 07:20:07;;;;;;;;;4.00;3.50;;;;;18.86;60.03;100983.19;4945849;28;46129;-78
2021/08/08 07:22:33;;;;;;;;;5.25;4.25;;;;;18.87;60.03;100987.53;4963689;28;45458;-78
2021/08/08 07:24:58;;;;;;;;;3.25;3.25;;;;;18.85;60.54;100981.47;4972158;28;46741;-78
2021/08/08 07:27:24;;;;;;;;;4.00;3.00;;;;;18.90;59.94;100983.81;4968167;28;45144;-78
2021/08/08 07:29:49;;;;;;;;;7.75;5.00;;;;;18.92;59.78;100991.69;4955862;28;45479;-77
2021/08/08 07:32:14;;;;;;;;;3.00;3.00;;;;;18.85;59.71;100991.25;4961478;28;45466;-78
2021/08/08 07:34:40;;;;;;;;;5.00;4.25;;;;;18.85;59.74;100999.22;4958055;28;46719;-78
2021/08/08 07:37:05;;;;;;;;;5.50;5.50;;;;;18.91;59.71;101005.97;4961473;28;45742;-77
2021/08/08 07:39:32;;;;;;;;;6.75;4.75;;;;;18.92;59.64;101005.88;4959953;28;45512;-78
2021/08/08 07:41:57;;;;;;;;;4.00;3.00;;;;;18.92;59.60;101007.69;4959084;28;46113;-77
2021/08/08 07:44:23;;;;;;;;;4.75;3.75;;;;;18.91;59.83;101013.97;4959476;28;46345;-80
2021/08/08 07:46:48;;;;;;;;;5.25;4.00;;;;;18.84;59.86;101010.84;4959105;28;45465;-78
2021/08/08 07:49:13;;;;;;;;;6.25;4.00;;;;;18.81;59.91;101017.22;4932840;28;45389;-78
2021/08/08 07:51:39;;;;;;;;;4.00;4.00;;;;;18.82;59.74;101024.25;4941313;28;46309;-78
2021/08/08 07:54:04;;;;;;;;;7.25;4.50;;;;;18.81;60.18;101022.56;4971708;28;45472;-78
2021/08/08 07:56:31;;;;;;;;;4.75;2.75;;;;;18.84;60.14;101026.84;4952065;28;45536;-76
2021/08/08 07:58:56;;;;;;;;;4.50;2.00;;;;;18.91;59.75;101032.63;4924147;28;45329;-77
2021/08/08 08:01:21;;;;;;;;;5.00;4.00;;;;;18.94;59.66;101017.28;4956793;28;45809;-77
2021/08/08 08:03:47;;;;;;;;;5.25;4.00;;;;;18.98;59.99;101025.94;4953960;28;45223;-77
2021/08/08 08:06:12;;;;;;;;;5.25;3.50;;;;;18.99;59.62;101019.66;4959397;28;45291;-77
2021/08/08 08:08:38;;;;;;;;;5.00;5.00;;;;;19.08;59.26;101028.88;4961804;28;45362;-79
2021/08/08 08:11:03;;;;;;;;;4.25;3.50;;;;;19.11;59.71;101018.03;4965329;28;45527;-77
2021/08/08 08:13:28;;;;;;;;;4.50;2.50;;;;;19.17;59.31;101027.41;4940112;28;47036;-78
2021/08/08 08:15:54;;;;;;;;;3.25;3.00;;;;;19.20;59.29;101028.09;4958303;28;45451;-78
2021/08/08 08:18:19;;;;;;;;;3.25;3.00;;;;;19.20;59.43;101033.44;4955858;28;45302;-77
2021/08/08 08:20:44;;;;;;;;;6.75;6.00;;;;;19.22;59.05;101035.97;4958436;28;45969;-78
2021/08/08 08:23:10;;;;;;;;;4.00;3.00;;;;;19.26;58.92;101041.97;4960555;28;46312;-78
2021/08/08 08:25:35;;;;;;;;;6.50;5.00;;;;;19.28;58.94;101040.06;4967224;28;45357;-78
2021/08/08 08:28:01;;;;;;;;;6.50;5.00;;;;;19.22;58.93;101046.63;4965788;28;45342;-78
2021/08/08 08:30:26;;;;;;;;;5.00;3.00;;;;;19.18;58.86;101063.78;4963049;28;45406;-77
2021/08/08 08:32:52;;;;;;;;;4.75;3.00;;;;;19.17;59.26;101054.94;4961931;28;46189;-77
2021/08/08 08:35:17;;;;;;;;;5.00;4.25;;;;;19.20;59.13;101053.88;4962225;28;45323;-76
2021/08/08 08:37:43;;;;;;;;;7.00;5.00;;;;;19.27;59.13;101057.84;4944477;28;45402;-76
2021/08/08 08:40:09;;;;;;;;;4.75;3.75;;;;;19.32;58.97;101055.75;4962010;28;45400;-76
2021/08/08 08:42:39;;;;;;;;;5.25;5.00;;;;;19.37;58.61;101059.91;4963097;28;46911;-76
2021/08/08 08:45:05;;;;;;;;;4.75;3.75;;;;;19.43;58.64;101064.84;4966665;28;45537;-76
2021/08/08 08:47:31;;;;;;;;;9.25;5.00;;;;;19.47;58.73;101065.50;4958030;28;45294;-76
2021/08/08 08:49:59;;;;;;;;;4.00;3.75;;;;;19.48;58.09;101073.41;4944479;28;46643;-76
2021/08/08 08:52:27;;;;;;;;;5.25;3.00;;;;;19.52;58.19;101080.25;4961721;28;45635;-76
2021/08/08 08:54:53;;;;;;;;;4.00;4.00;;;;;19.52;57.98;101069.56;4969638;28;45539;-76
2021/08/08 08:57:19;;;;;;;;;4.25;3.00;;;;;19.54;57.82;101073.00;4963732;28;45233;-76
2021/08/08 08:59:46;;;;;;;;;3.50;2.50;;;;;19.55;57.85;101064.06;4959918;28;45597;-77
2021/08/08 09:02:13;;;;;;;;;3.00;3.00;;;;;19.52;56.77;101074.03;4960660;28;47046;-78
2021/08/08 09:04:38;;;;;;;;;4.00;2.00;;;;;19.47;57.08;101062.81;4961377;28;45330;-78
2021/08/08 09:07:04;;;;;;;;;5.50;4.00;;;;;19.45;57.25;101073.59;4961569;28;45352;-76
2021/08/08 09:09:31;;;;;;;;;3.50;3.50;;;;;19.43;56.91;101065.69;4968275;28;45424;-76
2021/08/08 09:11:56;;;;;;;;;2.25;2.25;;;;;19.41;56.56;101074.78;4945765;28;47299;-77
2021/08/08 09:14:23;;;;;;;;;5.50;4.00;;;;;19.38;56.60;101081.16;4965678;28;45505;-76
2021/08/08 09:16:51;;;;;;;;;5.25;3.75;;;;;19.27;56.53;101070.31;4951067;28;45292;-77
2021/08/08 09:19:22;;;;;;;;;4.00;4.00;;;;;19.22;56.47;101067.97;4949835;28;45462;-77
2021/08/08 09:21:48;;;;;;;;;5.75;4.25;;;;;19.21;57.11;101067.09;4960986;28;45257;-77
2021/08/08 09:24:31;;;;;;;;;5.75;3.25;;;;;19.27;57.16;101092.50;4961425;28;45630;-76
2021/08/08 09:26:59;;;;;;;;;4.00;3.00;;;;;19.35;56.97;101081.34;4960495;28;45465;-76
2021/08/08 09:29:25;;;;;;;;;5.75;2.50;;;;;19.39;56.26;101084.66;4958326;28;45512;-77
2021/08/08 09:31:50;;;;;;;;;3.75;3.00;;;;;19.38;56.82;101089.16;4955400;28;46453;-78
2021/08/08 09:34:27;;;;;;;;;5.00;4.25;;;;;19.39;56.72;101084.66;4953943;28;45513;-78
2021/08/08 09:36:55;;;;;;;;;3.00;1.50;;;;;19.36;56.12;101085.69;4960110;28;45511;-78
2021/08/08 09:39:33;;;;;;;;;7.75;3.00;;;;;19.28;56.53;101082.69;4959735;28;45399;-77
2021/08/08 09:42:04;;;;;;;;;3.00;3.00;;;;;19.23;56.70;101078.53;4958913;28;46226;-77
2021/08/08 09:44:30;;;;;;;;;3.00;3.00;;;;;19.20;56.60;101092.03;4953036;28;45208;-77
2021/08/08 09:46:58;;;;;;;;;5.50;3.00;;;;;19.21;56.51;101087.56;4941812;28;45315;-78
2021/08/08 09:49:24;;;;;;;;;2.25;2.25;;;;;19.20;56.42;101096.50;4952961;28;45217;-78
2021/08/08 09:51:51;;;;;;;;;3.00;1.75;;;;;19.18;56.46;101087.78;4961021;28;45367;-78
2021/08/08 09:54:16;;;;;;;;;3.25;3.25;;;;;19.20;56.83;101102.69;4948955;28;45509;-78
2021/08/08 09:56:42;;;;;;;;;4.00;3.00;;;;;19.24;56.62;101098.00;4941685;28;45244;-78
2021/08/08 09:59:07;;;;;;;;;5.25;3.25;;;;;19.27;57.20;101110.28;4943733;28;45579;-78
2021/08/08 10:01:39;;;;;;;;;3.50;2.00;;;;;19.29;55.87;101111.91;4958108;28;45247;-77
2021/08/08 10:04:08;;;;;;;;;4.00;4.00;;;;;19.29;54.97;101103.03;4956527;28;45385;-77
2021/08/08 10:06:36;;;;;;;;;3.75;3.50;;;;;19.27;54.25;101100.50;4948400;28;45516;-77
2021/08/08 10:09:03;;;;;;;;;7.00;3.00;;;;;19.29;52.74;101111.03;4948192;28;45445;-77
2021/08/08 10:11:31;;;;;;;;;3.50;3.00;;;;;19.33;53.82;101100.09;4951091;28;45471;-77
2021/08/08 10:14:02;;;;;;;;;4.50;4.25;;;;;19.39;55.13;101097.97;4940027;28;45301;-77
2021/08/08 10:16:31;;;;;;;;;5.75;3.25;;;;;19.44;55.43;101110.06;4957464;28;45465;-78
2021/08/08 10:19:01;;;;;;;;;6.00;2.00;;;;;19.54;54.62;101104.97;4977180;28;45493;-77
2021/08/08 10:21:29;;;;;;;;;3.75;2.75;;;;;19.62;54.54;101098.28;4963712;28;46542;-77
2021/08/08 10:24:00;;;;;;;;;4.00;3.00;;;;;19.68;54.28;101108.53;4960567;28;45380;-77
2021/08/08 10:26:25;;;;;;;;;2.25;2.00;;;;;19.77;54.45;101097.28;4963648;28;45477;-78
2021/08/08 10:28:53;;;;;;;;;2.00;2.00;;;;;19.91;54.06;101100.81;4965339;28;45284;-77
2021/08/08 10:31:22;;;;;;;;;5.75;3.00;;;;;20.01;54.04;101096.56;4964146;28;45413;-77
2021/08/08 10:33:50;;;;;;;;;3.75;2.25;;;;;20.09;53.34;101108.53;4946432;28;45635;-77
2021/08/08 10:36:27;;;;;;;;;2.00;2.00;;;;;20.15;53.42;101121.47;4964168;28;45179;-77
2021/08/08 10:39:15;;;;;;;;;3.25;3.25;;;;;20.16;53.11;101114.34;4963968;28;45374;-77
2021/08/08 10:41:42;;;;;;;;;5.50;3.75;;;;;20.11;53.60;101118.19;4952910;28;48020;-77
2021/08/08 10:44:10;;;;;;;;;2.75;2.75;;;;;20.07;51.80;101111.31;4961700;28;45981;-77
2021/08/08 10:46:53;;;;;;;;;5.25;4.25;;;;;20.04;52.93;101116.00;4973336;28;45324;-77
2021/08/08 10:49:32;;;;;;;;;5.00;2.75;;;;;20.05;52.89;101117.72;4964886;28;47647;-77
2021/08/08 10:52:02;;;;;;;;;4.00;3.00;;;;;20.07;53.31;101115.81;4976605;28;45551;-77
2021/08/08 10:54:40;;;;;;;;;4.50;1.75;;;;;20.11;53.03;101111.97;4976867;28;45444;-77
2021/08/08 10:57:13;;;;;;;;;1.50;1.50;;;;;20.12;52.81;101121.72;4980095;28;45488;-77
2021/08/08 10:59:59;;;;;;;;;5.00;4.00;;;;;20.09;52.75;101113.88;4975420;28;45362;-77
2021/08/08 11:02:26;;;;;;;;;3.25;3.25;;;;;20.08;53.13;101106.81;4977654;28;48030;-77
2021/08/08 11:04:52;;;;;;;;;3.00;3.00;;;;;20.10;53.02;101108.44;4974159;28;45163;-77
2021/08/08 11:07:25;;;;;;;;;4.00;3.25;;;;;20.14;52.52;101101.13;4951787;28;45663;-77
2021/08/08 11:09:51;;;;;;;;;3.75;3.75;;;;;20.12;51.72;101097.69;4974667;28;45376;-77
2021/08/08 11:12:18;;;;;;;;;2.25;2.25;;;;;20.13;52.65;101102.91;4982697;28;45369;-77
2021/08/08 11:14:49;;;;;;;;;3.00;3.00;;;;;20.18;53.09;101094.59;4973780;28;45580;-77
2021/08/08 11:17:15;;;;;;;;;3.50;3.50;;;;;20.27;52.47;101097.59;4963484;28;45421;-77
2021/08/08 11:19:42;;;;;;;;;3.00;2.25;;;;;20.31;51.65;101091.94;4963570;28;45520;-77
2021/08/08 11:22:19;;;;;;;;;2.75;2.25;;;;;20.33;52.46;101083.81;4963111;28;45464;-77